createdAt,value
2023-01-12T00:00:39.895Z,9.418315
2023-01-12T00:01:39.853Z,9.418273
2023-01-12T00:02:39.888Z,9.418254
2023-01-12T00:03:39.893Z,9.418269
2023-01-12T00:04:39.893Z,9.418255
2023-01-12T00:05:39.853Z,9.418292
2023-01-12T00:06:39.861Z,9.418198
2023-01-12T00:07:39.819Z,9.418252
2023-01-12T00:08:39.814Z,9.418275
2023-01-12T00:09:40.844Z,9.418285
2023-01-12T00:10:39.812Z,9.418242
2023-01-12T00:11:39.799Z,9.418148
2023-01-12T00:12:39.785Z,9.418304
2023-01-12T00:13:39.799Z,9.418322
2023-01-12T00:14:39.800Z,9.418276
2023-01-12T00:15:39.936Z,9.418172
2023-01-12T00:16:39.790Z,9.418407
2023-01-12T00:17:39.754Z,9.418268
2023-01-12T00:18:39.737Z,9.418385
2023-01-12T00:19:39.761Z,9.418371
2023-01-12T00:20:39.761Z,9.418426
2023-01-12T00:21:39.725Z,9.418367
2023-01-12T00:22:39.729Z,9.418305
2023-01-12T00:23:39.708Z,9.418375
2023-01-12T00:24:39.697Z,9.418311
2023-01-12T00:25:39.733Z,9.418249
2023-01-12T00:26:39.708Z,9.418338
2023-01-12T00:27:39.679Z,9.418366
2023-01-12T00:28:39.672Z,9.418319
2023-01-12T00:29:39.659Z,9.418396
2023-01-12T00:30:39.667Z,9.418458
2023-01-12T00:31:39.654Z,9.418350
2023-01-12T00:32:39.649Z,9.418311
2023-01-12T00:33:39.648Z,9.418269
2023-01-12T00:34:39.642Z,9.418251
2023-01-12T00:35:39.662Z,9.418279
2023-01-12T00:36:39.618Z,9.418316
2023-01-12T00:37:39.616Z,9.418316
2023-01-12T00:38:39.624Z,9.418349
2023-01-12T00:39:42.967Z,9.418293
2023-01-12T00:40:41.697Z,9.418261
2023-01-12T00:41:39.593Z,9.418268
2023-01-12T00:42:39.583Z,9.418342
2023-01-12T00:43:39.587Z,9.418327
2023-01-12T00:44:39.573Z,9.418338
2023-01-12T00:45:39.587Z,9.418302
2023-01-12T00:46:39.604Z,9.418308
2023-01-12T00:47:39.562Z,9.418283
2023-01-12T00:48:39.545Z,9.418316
2023-01-12T00:49:39.543Z,9.418359
2023-01-12T00:50:39.533Z,9.418292
2023-01-12T00:51:39.568Z,9.418308
2023-01-12T00:52:39.524Z,9.418293
2023-01-12T00:53:39.547Z,9.418272
2023-01-12T00:54:39.506Z,9.418318
2023-01-12T00:55:39.525Z,9.418292
2023-01-12T00:56:39.559Z,9.418390
2023-01-12T00:57:39.501Z,9.418250
2023-01-12T00:58:39.479Z,9.418316
2023-01-12T00:59:39.524Z,9.418335
2023-01-12T01:00:39.460Z,9.418338
2023-01-12T01:01:40.638Z,9.418293
2023-01-12T01:02:39.499Z,9.418303
2023-01-12T01:03:39.447Z,9.418283
2023-01-12T01:04:39.436Z,9.418365
2023-01-12T01:05:39.445Z,9.418306
2023-01-12T01:06:39.476Z,9.418261
2023-01-12T01:07:39.433Z,9.418227
2023-01-12T01:08:39.412Z,9.418159
2023-01-12T01:09:39.412Z,9.418279
2023-01-12T01:10:39.421Z,9.418345
2023-01-12T01:11:39.420Z,9.418277
2023-01-12T01:12:39.443Z,9.418187
2023-01-12T01:13:39.415Z,9.418143
2023-01-12T01:14:39.413Z,9.418207
2023-01-12T01:15:39.413Z,9.418262
2023-01-12T01:16:39.396Z,9.418294
2023-01-12T01:17:39.406Z,9.418329
2023-01-12T01:18:39.362Z,9.418443
2023-01-12T01:19:39.360Z,9.418376
2023-01-12T01:20:39.351Z,9.418333
2023-01-12T01:21:39.335Z,9.418325
2023-01-12T01:22:39.361Z,9.418365
2023-01-12T01:23:39.328Z,9.418308
2023-01-12T01:24:40.316Z,9.418417
2023-01-12T01:25:40.029Z,9.418301
2023-01-12T01:26:39.316Z,9.418382
2023-01-12T01:27:39.316Z,9.418279
2023-01-12T01:28:39.325Z,9.418274
2023-01-12T01:29:39.289Z,9.418281
2023-01-12T01:30:39.288Z,9.418294
2023-01-12T01:31:39.312Z,9.418387
2023-01-12T01:32:39.275Z,9.418323
2023-01-12T01:33:39.271Z,9.418369
2023-01-12T01:34:39.279Z,9.418272
2023-01-12T01:35:39.257Z,9.418151
2023-01-12T01:36:39.255Z,9.418326
2023-01-12T01:37:39.256Z,9.418391
2023-01-12T01:38:39.248Z,9.418372
2023-01-12T01:39:39.224Z,9.418501
2023-01-12T01:40:39.376Z,9.418408
2023-01-12T01:41:39.236Z,9.418256
2023-01-12T01:42:39.247Z,9.418316
2023-01-12T01:43:39.207Z,9.418415
2023-01-12T01:44:39.221Z,9.418418
2023-01-12T01:45:39.195Z,9.418276
2023-01-12T01:46:39.236Z,9.418246
2023-01-12T01:47:39.252Z,9.418335
2023-01-12T01:48:39.155Z,9.418269
2023-01-12T01:49:39.221Z,9.418296
2023-01-12T01:50:39.147Z,9.418298
2023-01-12T01:51:39.181Z,9.418358
2023-01-12T01:52:39.145Z,9.418354
2023-01-12T01:53:39.131Z,9.418313
2023-01-12T01:54:39.140Z,9.418330
2023-01-12T01:55:39.129Z,9.418322
2023-01-12T01:56:39.135Z,9.418252
2023-01-12T01:57:39.165Z,9.418227
2023-01-12T01:58:39.108Z,9.418277
2023-01-12T01:59:39.104Z,9.418184
2023-01-12T02:00:39.195Z,9.418187
2023-01-12T02:01:39.276Z,9.418043
2023-01-12T02:02:39.119Z,9.417977
2023-01-12T02:03:39.063Z,9.418751
2023-01-12T02:04:39.092Z,9.418584
2023-01-12T02:05:39.055Z,9.418509
2023-01-12T02:06:39.064Z,9.418374
2023-01-12T02:07:39.084Z,9.418212
2023-01-12T02:08:39.051Z,9.418187
2023-01-12T02:09:39.062Z,9.418280
2023-01-12T02:10:39.036Z,9.418555
2023-01-12T02:11:39.032Z,9.418435
2023-01-12T02:12:39.023Z,9.418310
2023-01-12T02:13:39.007Z,9.418271
2023-01-12T02:14:39.003Z,9.418272
2023-01-12T02:15:39.027Z,9.418410
2023-01-12T02:16:39.015Z,9.418259
2023-01-12T02:17:38.981Z,9.418298
2023-01-12T02:18:38.980Z,9.418239
2023-01-12T02:19:38.991Z,9.418287
2023-01-12T02:20:38.955Z,9.418209
2023-01-12T02:21:38.974Z,9.418339
2023-01-12T02:22:38.983Z,9.418452
2023-01-12T02:23:38.943Z,9.418329
2023-01-12T02:24:38.950Z,9.418335
2023-01-12T02:25:38.933Z,9.418321
2023-01-12T02:26:38.927Z,9.418293
2023-01-12T02:27:38.926Z,9.418283
2023-01-12T02:28:38.935Z,9.418663
2023-01-12T02:29:38.913Z,9.418372
2023-01-12T02:30:38.921Z,9.418352
2023-01-12T02:31:38.983Z,9.418351
2023-01-12T02:32:38.877Z,9.418385
2023-01-12T02:33:39.913Z,9.418335
2023-01-12T02:34:38.879Z,9.418277
2023-01-12T02:35:38.881Z,9.418284
2023-01-12T02:36:38.871Z,9.418333
2023-01-12T02:37:38.868Z,9.418287
2023-01-12T02:38:38.866Z,9.418347
2023-01-12T02:39:39.210Z,9.418277
2023-01-12T02:40:39.844Z,9.418296
2023-01-12T02:41:38.836Z,9.418278
2023-01-12T02:42:38.836Z,9.418327
2023-01-12T02:43:38.851Z,9.418400
2023-01-12T02:44:38.868Z,9.418366
2023-01-12T02:45:38.853Z,9.418345
2023-01-12T02:46:38.851Z,9.418410
2023-01-12T02:47:38.800Z,9.418463
2023-01-12T02:48:38.818Z,9.418553
2023-01-12T02:49:38.783Z,9.418448
2023-01-12T02:50:38.772Z,9.418407
2023-01-12T02:51:38.773Z,9.418371
2023-01-12T02:52:38.812Z,9.418392
2023-01-12T02:53:38.755Z,9.418375
2023-01-12T02:54:38.815Z,9.418298
2023-01-12T02:55:38.776Z,9.418287
2023-01-12T02:56:38.752Z,9.418283
2023-01-12T02:57:38.745Z,9.418281
2023-01-12T02:58:38.752Z,9.418375
2023-01-12T02:59:38.780Z,9.418461
2023-01-12T03:00:38.792Z,9.418190
2023-01-12T03:01:38.739Z,9.418203
2023-01-12T03:02:38.797Z,9.418276
2023-01-12T03:03:38.694Z,9.418200
2023-01-12T03:04:38.683Z,9.418285
2023-01-12T03:05:38.693Z,9.418267
2023-01-12T03:06:38.675Z,9.418284
2023-01-12T03:07:38.721Z,9.418343
2023-01-12T03:08:38.668Z,9.418310
2023-01-12T03:09:38.671Z,9.418345
2023-01-12T03:10:38.658Z,9.418309
2023-01-12T03:11:38.643Z,9.418245
2023-01-12T03:12:38.655Z,9.418285
2023-01-12T03:13:38.649Z,9.418210
2023-01-12T03:14:38.631Z,9.418420
2023-01-12T03:15:38.619Z,9.418310
2023-01-12T03:16:38.616Z,9.418249
2023-01-12T03:17:38.649Z,9.418406
2023-01-12T03:18:38.592Z,9.418249
2023-01-12T03:19:38.587Z,9.418485
2023-01-12T03:20:38.584Z,9.418220
2023-01-12T03:21:38.575Z,9.418282
2023-01-12T03:22:38.572Z,9.418251
2023-01-12T03:23:38.584Z,9.418107
2023-01-12T03:24:38.553Z,9.417918
2023-01-12T03:25:38.552Z,9.418218
2023-01-12T03:26:38.557Z,9.418327
2023-01-12T03:27:38.542Z,9.418210
2023-01-12T03:28:38.548Z,9.418413
2023-01-12T03:29:38.526Z,9.418443
2023-01-12T03:30:38.525Z,9.418365
2023-01-12T03:31:38.584Z,9.418282
2023-01-12T03:32:38.508Z,9.418219
2023-01-12T03:33:38.512Z,9.418287
2023-01-12T03:34:38.500Z,9.418236
2023-01-12T03:35:38.551Z,9.418275
2023-01-12T03:36:38.500Z,9.418394
2023-01-12T03:37:38.476Z,9.418413
2023-01-12T03:38:38.476Z,9.418337
2023-01-12T03:39:38.476Z,9.418304
2023-01-12T03:40:38.518Z,9.418317
2023-01-12T03:41:38.469Z,9.418443
2023-01-12T03:42:38.488Z,9.418354
2023-01-12T03:43:38.476Z,9.418369
2023-01-12T03:44:38.456Z,9.418372
2023-01-12T03:45:38.443Z,9.418381
2023-01-12T03:46:38.432Z,9.418443
2023-01-12T03:47:38.463Z,9.418427
2023-01-12T03:48:38.491Z,9.418476
2023-01-12T03:49:38.406Z,9.418304
2023-01-12T03:50:38.436Z,9.418372
2023-01-12T03:51:38.402Z,9.418427
2023-01-12T03:52:38.406Z,9.418365
2023-01-12T03:53:38.400Z,9.418417
2023-01-12T03:54:38.369Z,9.418363
2023-01-12T03:55:38.384Z,9.418455
2023-01-12T03:56:38.377Z,9.418591
2023-01-12T03:57:38.352Z,9.418531
2023-01-12T03:58:38.349Z,9.418296
2023-01-12T03:59:38.336Z,9.418294
2023-01-12T04:00:38.385Z,9.418365
2023-01-12T04:01:38.392Z,9.418329
2023-01-12T04:02:38.310Z,9.418274
2023-01-12T04:03:38.326Z,9.418407
2023-01-12T04:04:38.287Z,9.418305
2023-01-12T04:05:39.287Z,9.418320
2023-01-12T04:06:38.326Z,9.418283
2023-01-12T04:07:38.296Z,9.418256
2023-01-12T04:08:38.274Z,9.418377
2023-01-12T04:09:38.259Z,9.418294
2023-01-12T04:10:38.264Z,9.418311
2023-01-12T04:11:38.275Z,9.418276
2023-01-12T04:12:38.270Z,9.418278
2023-01-12T04:13:38.240Z,9.418433
2023-01-12T04:14:38.232Z,9.418424
2023-01-12T04:15:38.249Z,9.418539
2023-01-12T04:16:38.279Z,9.418478
2023-01-12T04:17:38.212Z,9.418393
2023-01-12T04:18:38.218Z,9.418323
2023-01-12T04:19:38.211Z,9.418147
2023-01-12T04:20:38.195Z,9.418214
2023-01-12T04:21:38.202Z,9.418195
2023-01-12T04:22:38.237Z,9.418330
2023-01-12T04:23:38.184Z,9.418335
2023-01-12T04:24:38.170Z,9.418287
2023-01-12T04:25:38.177Z,9.418595
2023-01-12T04:26:38.191Z,9.418425
2023-01-12T04:27:38.163Z,9.418347
2023-01-12T04:28:38.185Z,9.418244
2023-01-12T04:29:38.132Z,9.418259
2023-01-12T04:30:38.135Z,9.418285
2023-01-12T04:31:38.192Z,9.418277
2023-01-12T04:32:38.111Z,9.418432
2023-01-12T04:33:38.110Z,9.418330
2023-01-12T04:34:38.136Z,9.418351
2023-01-12T04:35:38.117Z,9.418383
2023-01-12T04:36:38.178Z,9.418197
2023-01-12T04:37:38.080Z,9.418294
2023-01-12T04:38:38.123Z,9.418258
2023-01-12T04:39:38.064Z,9.418268
2023-01-12T04:40:38.076Z,9.418429
2023-01-12T04:41:38.067Z,9.418262
2023-01-12T04:42:38.053Z,9.418262
2023-01-12T04:43:38.051Z,9.418302
2023-01-12T04:44:38.036Z,9.418209
2023-01-12T04:45:38.134Z,9.418290
2023-01-12T04:46:38.049Z,9.418266
2023-01-12T04:47:38.017Z,9.418174
2023-01-12T04:48:38.038Z,9.418277
2023-01-12T04:49:38.128Z,9.418303
2023-01-12T04:50:38.023Z,9.418324
2023-01-12T04:51:37.995Z,9.418358
2023-01-12T04:52:37.983Z,9.418435
2023-01-12T04:53:38.002Z,9.418537
2023-01-12T04:54:37.979Z,9.418640
2023-01-12T04:55:37.973Z,9.418703
2023-01-12T04:56:37.979Z,9.418833
2023-01-12T04:57:37.974Z,9.419044
2023-01-12T04:58:37.944Z,9.419120
2023-01-12T04:59:37.940Z,9.419103
2023-01-12T05:00:37.930Z,9.419103
2023-01-12T05:01:38.093Z,9.418912
2023-01-12T05:02:37.911Z,9.418808
2023-01-12T05:03:37.919Z,9.418718
2023-01-12T05:04:37.907Z,9.418678
2023-01-12T05:05:37.897Z,9.418364
2023-01-12T05:06:37.897Z,9.418346
2023-01-12T05:07:37.909Z,9.418515
2023-01-12T05:08:37.878Z,9.418653
2023-01-12T05:09:37.875Z,9.418680
2023-01-12T05:10:37.907Z,9.418624
2023-01-12T05:11:37.881Z,9.418634
2023-01-12T05:12:37.907Z,9.418520
2023-01-12T05:13:37.851Z,9.418558
2023-01-12T05:14:37.843Z,9.418360
2023-01-12T05:15:37.842Z,9.418299
2023-01-12T05:16:37.921Z,9.418392
2023-01-12T05:17:37.862Z,9.418370
2023-01-12T05:18:37.838Z,9.418356
2023-01-12T05:19:37.828Z,9.418461
2023-01-12T05:20:37.805Z,9.418419
2023-01-12T05:21:37.840Z,9.418354
2023-01-12T05:22:37.814Z,9.418324
2023-01-12T05:23:37.894Z,9.418298
2023-01-12T05:24:37.798Z,9.418497
2023-01-12T05:25:37.813Z,9.418544
2023-01-12T05:26:37.820Z,9.418791
2023-01-12T05:27:37.770Z,9.418588
2023-01-12T05:28:37.813Z,9.418624
2023-01-12T05:29:37.793Z,9.418612
2023-01-12T05:30:37.862Z,9.418405
2023-01-12T05:31:37.833Z,9.418461
2023-01-12T05:32:37.730Z,9.418408
2023-01-12T05:33:37.747Z,9.418487
2023-01-12T05:34:37.751Z,9.418392
2023-01-12T05:35:37.753Z,9.418436
2023-01-12T05:36:37.701Z,9.418513
2023-01-12T05:37:37.698Z,9.418560
2023-01-12T05:38:37.726Z,9.418491
2023-01-12T05:39:37.686Z,9.418460
2023-01-12T05:40:37.672Z,9.418520
2023-01-12T05:41:37.678Z,9.418424
2023-01-12T05:42:37.659Z,9.418341
2023-01-12T05:43:37.664Z,9.418336
2023-01-12T05:44:37.654Z,9.418285
2023-01-12T05:45:37.641Z,9.418300
2023-01-12T05:46:37.649Z,9.418312
2023-01-12T05:47:37.627Z,9.418443
2023-01-12T05:48:37.628Z,9.418270
2023-01-12T05:49:37.607Z,9.418260
2023-01-12T05:50:37.621Z,9.418194
2023-01-12T05:51:37.619Z,9.418306
2023-01-12T05:52:37.609Z,9.418336
2023-01-12T05:53:37.585Z,9.418301
2023-01-12T05:54:37.595Z,9.418262
2023-01-12T05:55:37.575Z,9.418322
2023-01-12T05:56:37.573Z,9.418139
2023-01-12T05:57:37.585Z,9.418283
2023-01-12T05:58:37.561Z,9.418257
2023-01-12T05:59:37.549Z,9.417994
2023-01-12T06:00:37.591Z,9.418170
2023-01-12T06:01:37.534Z,9.418256
2023-01-12T06:02:37.567Z,9.418140
2023-01-12T06:03:37.523Z,9.418220
2023-01-12T06:04:37.523Z,9.418212
2023-01-12T06:05:37.510Z,9.418151
2023-01-12T06:06:37.644Z,9.418117
2023-01-12T06:07:37.517Z,9.418125
2023-01-12T06:08:37.516Z,9.418185
2023-01-12T06:09:37.485Z,9.418152
2023-01-12T06:10:37.504Z,9.418072
2023-01-12T06:11:37.477Z,9.418291
2023-01-12T06:12:37.493Z,9.418285
2023-01-12T06:13:37.475Z,9.418188
2023-01-12T06:14:37.458Z,9.418303
2023-01-12T06:15:37.495Z,9.418195
2023-01-12T06:16:37.454Z,9.418141
2023-01-12T06:17:37.430Z,9.418316
2023-01-12T06:18:37.450Z,9.418154
2023-01-12T06:19:37.455Z,9.418064
2023-01-12T06:20:37.421Z,9.417915
2023-01-12T06:21:37.425Z,9.418223
2023-01-12T06:22:37.403Z,9.418180
2023-01-12T06:23:37.416Z,9.418140
2023-01-12T06:24:37.383Z,9.418300
2023-01-12T06:25:37.383Z,9.418297
2023-01-12T06:26:37.382Z,9.418156
2023-01-12T06:27:37.374Z,9.418197
2023-01-12T06:28:37.373Z,9.418303
2023-01-12T06:29:37.433Z,9.418267
2023-01-12T06:30:37.355Z,9.418447
2023-01-12T06:31:37.355Z,9.418322
2023-01-12T06:32:37.452Z,9.418121
2023-01-12T06:33:37.331Z,9.418266
2023-01-12T06:34:37.350Z,9.418305
2023-01-12T06:35:37.309Z,9.418390
2023-01-12T06:36:37.316Z,9.418443
2023-01-12T06:37:38.305Z,9.418359
2023-01-12T06:38:37.306Z,9.418301
2023-01-12T06:39:37.315Z,9.418550
2023-01-12T06:40:37.297Z,9.418321
2023-01-12T06:41:37.283Z,9.418412
2023-01-12T06:42:37.268Z,9.418429
2023-01-12T06:43:37.279Z,9.418365
2023-01-12T06:44:37.262Z,9.418378
2023-01-12T06:45:37.278Z,9.418277
2023-01-12T06:46:38.315Z,9.418180
2023-01-12T06:47:37.242Z,9.418281
2023-01-12T06:48:38.898Z,9.418220
2023-01-12T06:49:37.242Z,9.418159
2023-01-12T06:50:37.242Z,9.418024
2023-01-12T06:51:37.214Z,9.417949
2023-01-12T06:52:37.203Z,9.417730
2023-01-12T06:53:37.203Z,9.418096
2023-01-12T06:54:37.193Z,9.418229
2023-01-12T06:55:37.181Z,9.418303
2023-01-12T06:56:37.186Z,9.418271
2023-01-12T06:57:37.185Z,9.418267
2023-01-12T06:58:37.186Z,9.418271
2023-01-12T06:59:38.959Z,9.418271
2023-01-12T07:00:38.156Z,9.418357
2023-01-12T07:01:37.215Z,9.418346
2023-01-12T07:02:37.138Z,9.418388
2023-01-12T07:03:37.157Z,9.418436
2023-01-12T07:04:37.176Z,9.418523
2023-01-12T07:05:37.117Z,9.418504
2023-01-12T07:06:37.115Z,9.418432
2023-01-12T07:07:39.881Z,9.418372
2023-01-12T07:08:37.128Z,9.418363
2023-01-12T07:09:37.098Z,9.418453
2023-01-12T07:10:37.092Z,9.418392
2023-01-12T07:11:37.079Z,9.418385
2023-01-12T07:12:37.076Z,9.418398
2023-01-12T07:13:37.063Z,9.418339
2023-01-12T07:14:38.081Z,9.418452
2023-01-12T07:15:37.119Z,9.418378
2023-01-12T07:16:37.079Z,9.418381
2023-01-12T07:17:37.045Z,9.418400
2023-01-12T07:18:37.063Z,9.418401
2023-01-12T07:19:37.064Z,9.418399
2023-01-12T07:20:37.022Z,9.418394
2023-01-12T07:21:37.029Z,9.418325
2023-01-12T07:22:37.010Z,9.418331
2023-01-12T07:23:37.009Z,9.418298
2023-01-12T07:24:37.014Z,9.418427
2023-01-12T07:25:37.012Z,9.418294
2023-01-12T07:26:36.996Z,9.418384
2023-01-12T07:27:37.010Z,9.418293
2023-01-12T07:28:36.979Z,9.418453
2023-01-12T07:29:36.983Z,9.418337
2023-01-12T07:30:37.015Z,9.418311
2023-01-12T07:31:36.965Z,9.418293
2023-01-12T07:32:36.954Z,9.418292
2023-01-12T07:33:36.957Z,9.418270
2023-01-12T07:34:36.943Z,9.418306
2023-01-12T07:35:36.956Z,9.418293
2023-01-12T07:36:36.928Z,9.418263
2023-01-12T07:37:36.931Z,9.418281
2023-01-12T07:38:36.911Z,9.418215
2023-01-12T07:39:36.911Z,9.418320
2023-01-12T07:40:36.911Z,9.418269
2023-01-12T07:41:36.911Z,9.418262
2023-01-12T07:42:36.893Z,9.418305
2023-01-12T07:43:36.927Z,9.418281
2023-01-12T07:44:36.884Z,9.418220
2023-01-12T07:45:36.873Z,9.418273
2023-01-12T07:46:36.919Z,9.418304
2023-01-12T07:47:36.859Z,9.418307
2023-01-12T07:48:36.879Z,9.418225
2023-01-12T07:49:36.849Z,9.418203
2023-01-12T07:50:36.838Z,9.418336
2023-01-12T07:51:36.834Z,9.418371
2023-01-12T07:52:36.818Z,9.418324
2023-01-12T07:53:36.826Z,9.418294
2023-01-12T07:54:36.806Z,9.418347
2023-01-12T07:55:36.811Z,9.418314
2023-01-12T07:56:36.786Z,9.418345
2023-01-12T07:57:36.827Z,9.418288
2023-01-12T07:58:36.797Z,9.418321
2023-01-12T07:59:36.778Z,9.418378
2023-01-12T08:00:37.765Z,9.418363
2023-01-12T08:01:36.898Z,9.418360
2023-01-12T08:02:36.771Z,9.418298
2023-01-12T08:03:36.767Z,9.418407
2023-01-12T08:04:36.747Z,9.418364
2023-01-12T08:05:36.795Z,9.418385
2023-01-12T08:06:36.728Z,9.418476
2023-01-12T08:07:36.723Z,9.418362
2023-01-12T08:08:36.730Z,9.418339
2023-01-12T08:09:36.710Z,9.418288
2023-01-12T08:10:37.713Z,9.418361
2023-01-12T08:11:36.700Z,9.418425
2023-01-12T08:12:36.689Z,9.418396
2023-01-12T08:13:36.683Z,9.418416
2023-01-12T08:14:36.691Z,9.418460
2023-01-12T08:15:36.670Z,9.418484
2023-01-12T08:16:36.698Z,9.418415
2023-01-12T08:17:36.648Z,9.418416
2023-01-12T08:18:36.659Z,9.418400
2023-01-12T08:19:36.642Z,9.418388
2023-01-12T08:20:36.655Z,9.418388
2023-01-12T08:21:36.697Z,9.418434
2023-01-12T08:22:36.629Z,9.418463
2023-01-12T08:23:36.610Z,9.418369
2023-01-12T08:24:36.618Z,9.418317
2023-01-12T08:25:36.618Z,9.418189
2023-01-12T08:26:36.595Z,9.418266
2023-01-12T08:27:36.586Z,9.418240
2023-01-12T08:28:36.619Z,9.418226
2023-01-12T08:29:36.581Z,9.418124
2023-01-12T08:30:36.582Z,9.418036
2023-01-12T08:31:36.567Z,9.418077
2023-01-12T08:32:36.559Z,9.418239
2023-01-12T08:33:36.580Z,9.418272
2023-01-12T08:34:36.545Z,9.418195
2023-01-12T08:35:36.554Z,9.418153
2023-01-12T08:36:36.541Z,9.418181
2023-01-12T08:37:36.555Z,9.418239
2023-01-12T08:38:36.523Z,9.418242
2023-01-12T08:39:36.508Z,9.418312
2023-01-12T08:40:36.532Z,9.418237
2023-01-12T08:41:36.498Z,9.418213
2023-01-12T08:42:36.501Z,9.418210
2023-01-12T08:43:36.507Z,9.418275
2023-01-12T08:44:36.489Z,9.418385
2023-01-12T08:45:37.478Z,9.418261
2023-01-12T08:46:36.522Z,9.418226
2023-01-12T08:47:36.460Z,9.418305
2023-01-12T08:48:36.452Z,9.418263
2023-01-12T08:49:36.471Z,9.418178
2023-01-12T08:50:36.451Z,9.418145
2023-01-12T08:51:36.460Z,9.418370
2023-01-12T08:52:36.444Z,9.418204
2023-01-12T08:53:36.507Z,9.418078
2023-01-12T08:54:36.438Z,9.418266
2023-01-12T08:55:36.414Z,9.418338
2023-01-12T08:56:36.405Z,9.418103
2023-01-12T08:57:36.410Z,9.417708
2023-01-12T08:58:36.401Z,9.417497
2023-01-12T08:59:36.393Z,9.417992
2023-01-12T09:00:36.441Z,9.418128
2023-01-12T09:01:36.523Z,9.418535
2023-01-12T09:02:36.419Z,9.418326
2023-01-12T09:03:36.374Z,9.418086
2023-01-12T09:04:36.352Z,9.418136
2023-01-12T09:05:36.361Z,9.418139
2023-01-12T09:06:36.353Z,9.418151
2023-01-12T09:07:36.365Z,9.417966
2023-01-12T09:08:36.330Z,9.418332
2023-01-12T09:09:36.333Z,9.418378
2023-01-12T09:10:36.333Z,9.417966
2023-01-12T09:11:36.328Z,9.417857
2023-01-12T09:12:36.330Z,9.418389
2023-01-12T09:13:36.305Z,9.418311
2023-01-12T09:14:36.297Z,9.418283
2023-01-12T09:15:36.286Z,9.418336
2023-01-12T09:16:36.324Z,9.418391
2023-01-12T09:17:36.293Z,9.418446
2023-01-12T09:18:36.273Z,9.418188
2023-01-12T09:19:36.268Z,9.418217
2023-01-12T09:20:36.305Z,9.418404
2023-01-12T09:21:36.244Z,9.418412
2023-01-12T09:22:36.259Z,9.418304
2023-01-12T09:23:36.221Z,9.418414
2023-01-12T09:24:36.229Z,9.417953
2023-01-12T09:25:36.230Z,9.418151
2023-01-12T09:26:36.221Z,9.417744
2023-01-12T09:27:36.224Z,9.417871
2023-01-12T09:28:36.217Z,9.418313
2023-01-12T09:29:36.189Z,9.418365
2023-01-12T09:30:36.190Z,9.418409
2023-01-12T09:31:36.220Z,9.419739
2023-01-12T09:32:37.047Z,9.419106
2023-01-12T09:33:37.164Z,9.419108
2023-01-12T09:34:36.236Z,9.418930
2023-01-12T09:35:36.164Z,9.418530
2023-01-12T09:36:36.154Z,9.418469
2023-01-12T09:37:36.146Z,9.418597
2023-01-12T09:38:36.162Z,9.418409
2023-01-12T09:39:36.124Z,9.418505
2023-01-12T09:40:36.125Z,9.418555
2023-01-12T09:41:36.115Z,9.418007
2023-01-12T09:42:36.113Z,9.418169
2023-01-12T09:43:36.121Z,9.418379
2023-01-12T09:44:36.100Z,9.418530
2023-01-12T09:45:36.141Z,9.418582
2023-01-12T09:46:36.085Z,9.418582
2023-01-12T09:47:36.074Z,9.418582
2023-01-12T09:48:36.065Z,9.418582
2023-01-12T09:49:36.078Z,9.418322
2023-01-12T09:50:36.068Z,9.418357
2023-01-12T09:51:36.533Z,9.418543
2023-01-12T09:52:36.057Z,9.418376
2023-01-12T09:53:36.036Z,9.418515
2023-01-12T09:54:36.032Z,9.418520
2023-01-12T09:55:36.030Z,9.418457
2023-01-12T09:56:36.028Z,9.418567
2023-01-12T09:57:36.016Z,9.418420
2023-01-12T09:58:36.017Z,9.418335
2023-01-12T09:59:36.011Z,9.418350
2023-01-12T10:00:36.015Z,9.418276
2023-01-12T10:01:36.005Z,9.418253
2023-01-12T10:02:36.223Z,9.418251
2023-01-12T10:03:36.027Z,9.418316
2023-01-12T10:04:35.975Z,9.418359
2023-01-12T10:05:39.945Z,9.418387
2023-01-12T10:06:36.956Z,9.418336
2023-01-12T10:07:35.953Z,9.418300
2023-01-12T10:08:35.946Z,9.418275
2023-01-12T10:09:35.938Z,9.418312
2023-01-12T10:10:35.941Z,9.418339
2023-01-12T10:11:35.949Z,9.418189
2023-01-12T10:12:35.925Z,9.418306
2023-01-12T10:13:35.912Z,9.418190
2023-01-12T10:14:35.906Z,9.418188
2023-01-12T10:15:35.906Z,9.418208
2023-01-12T10:16:36.048Z,9.418182
2023-01-12T10:17:46.190Z,9.418269
2023-01-12T10:18:37.874Z,9.418201
2023-01-12T10:19:35.869Z,9.418230
2023-01-12T10:20:35.877Z,9.418318
2023-01-12T10:21:35.872Z,9.418348
2023-01-12T10:22:35.842Z,9.418284
2023-01-12T10:23:35.885Z,9.418339
2023-01-12T10:24:35.833Z,9.418321
2023-01-12T10:25:35.825Z,9.418385
2023-01-12T10:26:35.855Z,9.418245
2023-01-12T10:27:35.821Z,9.418294
2023-01-12T10:28:35.811Z,9.418265
2023-01-12T10:29:35.804Z,9.418372
2023-01-12T10:30:35.829Z,9.418398
2023-01-12T10:31:35.810Z,9.418374
2023-01-12T10:32:41.895Z,9.418306
2023-01-12T10:33:37.783Z,9.418283
2023-01-12T10:34:35.771Z,9.418314
2023-01-12T10:35:35.767Z,9.418352
2023-01-12T10:36:35.763Z,9.418363
2023-01-12T10:37:35.759Z,9.418295
2023-01-12T10:38:35.735Z,9.418410
2023-01-12T10:39:35.745Z,9.418304
2023-01-12T10:40:35.732Z,9.418312
2023-01-12T10:41:35.717Z,9.418303
2023-01-12T10:42:35.737Z,9.418308
2023-01-12T10:43:35.702Z,9.418326
2023-01-12T10:44:35.701Z,9.418180
2023-01-12T10:45:35.733Z,9.418270
2023-01-12T10:46:35.691Z,9.418298
2023-01-12T10:47:35.685Z,9.418355
2023-01-12T10:48:36.683Z,9.418230
2023-01-12T10:49:35.660Z,9.418318
2023-01-12T10:50:35.654Z,9.418370
2023-01-12T10:51:35.643Z,9.418314
2023-01-12T10:52:35.643Z,9.418258
2023-01-12T10:53:35.645Z,9.418221
2023-01-12T10:54:35.621Z,9.418270
2023-01-12T10:55:35.614Z,9.418246
2023-01-12T10:56:35.696Z,9.418245
2023-01-12T10:57:35.606Z,9.418351
2023-01-12T10:58:35.605Z,9.418435
2023-01-12T10:59:35.612Z,9.418432
2023-01-12T11:00:35.598Z,9.418303
2023-01-12T11:01:35.629Z,9.418439
2023-01-12T11:02:35.606Z,9.418347
2023-01-12T11:03:35.588Z,9.418380
2023-01-12T11:04:35.590Z,9.418410
2023-01-12T11:05:35.549Z,9.418367
2023-01-12T11:06:35.550Z,9.418477
2023-01-12T11:07:35.555Z,9.418347
2023-01-12T11:08:35.534Z,9.418430
2023-01-12T11:09:35.548Z,9.418334
2023-01-12T11:10:35.520Z,9.418296
2023-01-12T11:11:35.552Z,9.418298
2023-01-12T11:12:35.553Z,9.418319
2023-01-12T11:13:35.502Z,9.418285
2023-01-12T11:14:35.491Z,9.418301
2023-01-12T11:15:35.509Z,9.418332
2023-01-12T11:16:35.543Z,9.418349
2023-01-12T11:17:35.479Z,9.418337
2023-01-12T11:18:35.463Z,9.418318
2023-01-12T11:19:35.474Z,9.418347
2023-01-12T11:20:35.473Z,9.418305
2023-01-12T11:21:35.450Z,9.418321
2023-01-12T11:22:35.457Z,9.418357
2023-01-12T11:23:35.434Z,9.418388
2023-01-12T11:24:35.422Z,9.418346
2023-01-12T11:25:35.438Z,9.418325
2023-01-12T11:26:35.422Z,9.418373
2023-01-12T11:27:35.439Z,9.418388
2023-01-12T11:28:35.404Z,9.418317
2023-01-12T11:29:35.389Z,9.418355
2023-01-12T11:30:35.426Z,9.418345
2023-01-12T11:31:35.396Z,9.418353
2023-01-12T11:32:35.946Z,9.418372
2023-01-12T11:33:35.367Z,9.418313
2023-01-12T11:34:35.362Z,9.418440
2023-01-12T11:35:35.352Z,9.418353
2023-01-12T11:36:35.368Z,9.418267
2023-01-12T11:37:35.336Z,9.418274
2023-01-12T11:38:35.352Z,9.418344
2023-01-12T11:39:35.336Z,9.418278
2023-01-12T11:40:35.338Z,9.418210
2023-01-12T11:41:35.365Z,9.418261
2023-01-12T11:42:35.325Z,9.418273
2023-01-12T11:43:35.330Z,9.418172
2023-01-12T11:44:35.340Z,9.418231